Time;durP1;ratioP1;P1;durP2;ratioP2;P2;SDS_P1;SDS_P2;PMS_P1;PMS_P2;Temp;Humidity;BMP_temperature;BMP_pressure;BME280_temperature;BME280_humidity;BME280_pressure;Samples;Min_cycle;Max_cycle;Signal;HPM_P1;HPM_P2
2021/03/18 00:01:20;;;;;;;4.30;3.90;;;5.50;99.90;;;;;;4958806;28;20476;-75
2021/03/18 00:03:48;;;;;;;8.30;4.63;;;5.40;99.90;;;;;;4959732;28;20206;-77
2021/03/18 00:06:14;;;;;;;5.13;3.73;;;5.40;99.90;;;;;;4958338;28;20450;-78
2021/03/18 00:08:41;;;;;;;7.30;4.20;;;5.40;99.90;;;;;;4959932;28;21108;-76
2021/03/18 00:11:10;;;;;;;4.93;4.20;;;5.40;99.90;;;;;;4957378;28;20439;-77
2021/03/18 00:13:37;;;;;;;5.87;4.00;;;5.40;99.90;;;;;;4958742;28;20506;-76
2021/03/18 00:16:03;;;;;;;5.23;3.93;;;5.40;99.90;;;;;;4960472;28;20460;-78
2021/03/18 00:18:37;;;;;;;6.10;4.10;;;5.40;99.90;;;;;;4957966;28;20461;-80
2021/03/18 00:21:03;;;;;;;6.27;4.10;;;5.40;99.90;;;;;;4959003;28;20500;-78
2021/03/18 00:23:29;;;;;;;4.47;3.70;;;5.40;99.90;;;;;;4955437;28;20432;-78
2021/03/18 00:26:00;;;;;;;6.50;3.90;;;5.40;99.90;;;;;;4958082;28;20193;-78
2021/03/18 00:28:27;;;;;;;5.67;4.00;;;5.40;99.90;;;;;;4959466;28;20438;-76
2021/03/18 00:30:54;;;;;;;4.03;3.63;;;5.30;99.90;;;;;;4957684;28;20457;-79
2021/03/18 00:33:19;;;;;;;5.20;3.57;;;5.30;99.90;;;;;;4959471;28;20838;-78
2021/03/18 00:35:45;;;;;;;10.50;4.37;;;5.30;99.90;;;;;;4957734;28;20457;-75
2021/03/18 00:38:11;;;;;;;5.50;4.07;;;5.20;99.90;;;;;;4957741;28;20736;-76
2021/03/18 00:40:43;;;;;;;5.07;3.67;;;5.20;99.90;;;;;;4958726;28;20218;-78
2021/03/18 00:43:13;;;;;;;4.50;4.10;;;5.20;99.90;;;;;;4956075;28;20447;-75
2021/03/18 00:45:41;;;;;;;6.00;4.00;;;5.10;99.90;;;;;;4957710;28;21950;-77
2021/03/18 00:48:08;;;;;;;4.83;4.43;;;5.10;99.90;;;;;;4956207;28;20571;-76
2021/03/18 00:50:47;;;;;;;6.27;3.40;;;5.00;99.90;;;;;;4959504;28;20873;-77
2021/03/18 00:53:15;;;;;;;6.97;4.80;;;5.00;99.90;;;;;;4957285;28;20457;-75
2021/03/18 00:55:41;;;;;;;6.93;3.97;;;5.00;99.90;;;;;;4959975;28;20552;-77
2021/03/18 00:58:07;;;;;;;4.93;3.97;;;5.00;99.90;;;;;;4955412;28;20477;-77
2021/03/18 01:00:36;;;;;;;5.20;3.90;;;5.00;99.90;;;;;;4959814;28;20910;-78
2021/03/18 01:03:02;;;;;;;5.00;4.20;;;5.00;99.90;;;;;;4959395;28;20430;-77
2021/03/18 01:05:43;;;;;;;7.30;4.13;;;5.10;99.90;;;;;;4959313;28;20449;-77
2021/03/18 01:08:11;;;;;;;5.97;4.30;;;5.10;99.90;;;;;;4960187;28;20614;-76
2021/03/18 01:10:47;;;;;;;6.80;4.37;;;5.00;99.90;;;;;;4960233;28;20478;-78
2021/03/18 01:13:19;;;;;;;9.23;3.97;;;5.00;99.90;;;;;;4958042;28;20450;-78
2021/03/18 01:15:50;;;;;;;11.73;5.00;;;5.00;99.90;;;;;;4958714;28;20540;-77
2021/03/18 01:18:17;;;;;;;5.60;4.20;;;5.00;99.90;;;;;;4956680;28;20950;-77
2021/03/18 01:20:44;;;;;;;6.20;4.20;;;5.00;99.90;;;;;;4960659;28;20477;-77
2021/03/18 01:23:10;;;;;;;6.10;4.33;;;5.00;99.90;;;;;;4960032;28;20446;-75
2021/03/18 01:25:35;;;;;;;5.70;4.87;;;5.00;99.90;;;;;;4957932;28;20445;-76
2021/03/18 01:28:02;;;;;;;5.47;4.47;;;5.00;99.90;;;;;;4958398;28;20204;-78
2021/03/18 01:30:28;;;;;;;5.90;4.70;;;5.00;99.90;;;;;;4956937;28;20633;-78
2021/03/18 01:32:53;;;;;;;8.20;5.03;;;4.90;99.90;;;;;;4958901;28;20473;-77
2021/03/18 01:35:21;;;;;;;5.30;4.77;;;4.90;99.90;;;;;;4962802;28;20237;-76
2021/03/18 01:37:48;;;;;;;4.20;3.80;;;4.90;99.90;;;;;;4962238;28;20203;-76
2021/03/18 01:40:25;;;;;;;7.63;5.77;;;4.80;99.90;;;;;;4961525;28;20473;-77
2021/03/18 01:42:51;;;;;;;8.63;5.30;;;4.80;99.90;;;;;;4962642;28;20439;-76
2021/03/18 01:45:17;;;;;;;4.20;3.80;;;4.80;99.90;;;;;;4964819;28;20514;-77
2021/03/18 01:47:46;;;;;;;4.80;4.30;;;4.80;99.90;;;;;;4965094;28;20885;-77
2021/03/18 01:50:14;;;;;;;7.50;5.40;;;4.80;99.90;;;;;;4958485;28;20202;-77
2021/03/18 01:52:40;;;;;;;5.53;4.60;;;4.80;99.90;;;;;;4960017;28;20540;-77
2021/03/18 01:55:08;;;;;;;7.93;4.97;;;4.80;99.90;;;;;;4961911;28;20601;-78
2021/03/18 01:57:34;;;;;;;7.23;4.60;;;4.80;99.90;;;;;;4959990;28;20563;-78
2021/03/18 02:00:00;;;;;;;6.03;5.03;;;4.70;99.90;;;;;;4960059;28;20852;-77
2021/03/18 02:02:26;;;;;;;7.73;4.93;;;4.70;99.90;;;;;;4960668;28;20484;-77
2021/03/18 02:04:52;;;;;;;5.20;4.70;;;4.70;99.90;;;;;;4960354;28;20438;-77
2021/03/18 02:07:18;;;;;;;6.40;5.23;;;4.60;99.90;;;;;;4963238;28;20448;-77
2021/03/18 02:09:43;;;;;;;6.70;4.93;;;4.60;99.90;;;;;;4963164;28;20705;-76
2021/03/18 02:12:09;;;;;;;6.00;4.80;;;4.50;99.90;;;;;;4960069;28;20209;-77
2021/03/18 02:14:36;;;;;;;7.67;5.07;;;4.50;99.90;;;;;;4959778;28;20184;-77
2021/03/18 02:17:06;;;;;;;5.27;4.77;;;4.50;99.90;;;;;;4962590;28;20277;-77
2021/03/18 02:19:31;;;;;;;10.00;4.57;;;4.50;99.90;;;;;;4959582;28;20468;-76
2021/03/18 02:22:23;;;;;;;5.27;4.77;;;4.40;99.90;;;;;;4958764;28;20469;-78
2021/03/18 02:25:07;;;;;;;5.37;4.53;;;4.40;99.90;;;;;;4961919;28;20693;-77
2021/03/18 02:27:33;;;;;;;5.33;4.80;;;4.40;99.90;;;;;;4962338;28;20524;-78
2021/03/18 02:30:07;;;;;;;7.70;5.40;;;4.30;99.90;;;;;;4961209;28;20537;-77
2021/03/18 02:33:03;;;;;;;5.53;5.03;;;4.30;99.90;;;;;;4963857;28;20461;-76
2021/03/18 02:35:34;;;;;;;6.47;4.73;;;4.30;99.90;;;;;;4959193;28;20470;-76
2021/03/18 02:38:09;;;;;;;7.67;5.40;;;4.30;99.90;;;;;;4963202;28;20542;-77
2021/03/18 02:40:39;;;;;;;10.30;5.53;;;4.20;99.90;;;;;;4959338;28;20840;-77
2021/03/18 02:43:09;;;;;;;6.33;4.90;;;4.20;99.90;;;;;;4957753;28;21269;-78
2021/03/18 02:45:40;;;;;;;10.30;5.53;;;4.20;99.90;;;;;;4959254;28;20482;-79
2021/03/18 02:48:09;;;;;;;12.20;5.80;;;4.10;99.90;;;;;;4961705;28;20440;-78
2021/03/18 02:50:36;;;;;;;6.27;4.87;;;4.10;99.90;;;;;;4960155;28;20468;-77
2021/03/18 02:53:05;;;;;;;6.27;4.90;;;4.10;99.90;;;;;;4955526;28;21058;-77
2021/03/18 02:55:33;;;;;;;8.83;5.20;;;4.00;99.90;;;;;;4963409;28;20494;-77
2021/03/18 02:58:02;;;;;;;11.80;5.27;;;4.00;99.90;;;;;;4960293;28;20609;-77
2021/03/18 03:00:29;;;;;;;7.80;5.70;;;4.00;99.90;;;;;;4961365;28;20469;-77
2021/03/18 03:02:54;;;;;;;5.83;5.23;;;4.00;99.90;;;;;;4958489;28;20463;-77
2021/03/18 03:05:22;;;;;;;5.30;4.80;;;4.00;99.90;;;;;;4959809;28;20446;-78
2021/03/18 03:07:49;;;;;;;6.10;5.27;;;4.00;99.90;;;;;;4956665;28;20190;-76
2021/03/18 03:10:18;;;;;;;10.50;5.40;;;4.00;99.90;;;;;;4963861;28;20535;-76
2021/03/18 03:12:44;;;;;;;11.63;5.43;;;4.10;99.90;;;;;;4961630;28;20442;-77
2021/03/18 03:15:12;;;;;;;8.40;5.00;;;4.00;99.90;;;;;;4957324;28;20442;-77
2021/03/18 03:17:39;;;;;;;10.63;4.97;;;4.00;99.90;;;;;;4958298;28;20473;-77
2021/03/18 03:20:07;;;;;;;12.23;5.70;;;4.00;99.90;;;;;;4960897;28;20477;-75
2021/03/18 03:22:35;;;;;;;7.83;5.40;;;4.00;99.90;;;;;;4959118;28;20584;-77
2021/03/18 03:25:03;;;;;;;10.20;5.67;;;4.00;99.90;;;;;;4960315;28;20783;-76
2021/03/18 03:27:29;;;;;;;6.63;5.10;;;4.00;99.90;;;;;;4957809;28;20466;-76
2021/03/18 03:29:55;;;;;;;6.10;5.37;;;3.90;99.90;;;;;;4961468;28;20470;-77
2021/03/18 03:32:21;;;;;;;8.07;5.67;;;4.00;99.90;;;;;;4958403;28;20445;-75
2021/03/18 03:34:47;;;;;;;13.43;5.73;;;3.90;99.90;;;;;;4959764;28;20570;-77
2021/03/18 03:37:13;;;;;;;9.93;5.50;;;3.90;99.90;;;;;;4959662;28;20545;-77
2021/03/18 03:39:39;;;;;;;5.60;5.10;;;3.90;99.90;;;;;;4958681;28;20244;-78
2021/03/18 03:42:07;;;;;;;8.37;4.90;;;3.90;99.90;;;;;;4959073;28;20214;-77
2021/03/18 03:44:34;;;;;;;8.00;5.30;;;3.90;99.90;;;;;;4957587;28;20434;-78
2021/03/18 03:47:00;;;;;;;8.53;5.07;;;3.90;99.90;;;;;;4957968;28;20488;-77
2021/03/18 03:49:25;;;;;;;6.00;4.90;;;3.90;99.90;;;;;;4957703;28;20461;-77
2021/03/18 03:52:12;;;;;;;4.93;4.43;;;4.00;99.90;;;;;;4962250;28;20445;-77
2021/03/18 03:54:45;;;;;;;7.40;5.30;;;4.00;99.90;;;;;;4956472;28;20204;-77
2021/03/18 03:57:21;;;;;;;7.70;5.10;;;4.00;99.90;;;;;;4958844;28;20465;-76
2021/03/18 03:59:47;;;;;;;9.27;6.27;;;3.90;99.90;;;;;;4958805;28;20920;-78
2021/03/18 04:02:14;;;;;;;6.13;4.53;;;3.90;99.90;;;;;;4959991;28;20499;-77
2021/03/18 04:04:39;;;;;;;7.17;4.90;;;3.90;99.90;;;;;;4957955;28;20440;-77
2021/03/18 04:07:09;;;;;;;16.70;5.50;;;3.90;99.90;;;;;;4959291;28;20957;-77
2021/03/18 04:09:36;;;;;;;5.87;5.27;;;3.90;99.90;;;;;;4960509;28;20226;-77
2021/03/18 04:12:04;;;;;;;6.57;4.93;;;3.90;99.90;;;;;;4959720;28;20512;-76
2021/03/18 04:14:32;;;;;;;8.87;5.13;;;3.90;99.90;;;;;;4957716;28;20443;-76
2021/03/18 04:17:04;;;;;;;9.30;5.07;;;3.90;99.90;;;;;;4958753;28;20457;-76
2021/03/18 04:19:30;;;;;;;9.57;6.13;;;3.90;99.90;;;;;;4959061;28;20953;-77
2021/03/18 04:21:57;;;;;;;7.80;6.10;;;3.90;99.90;;;;;;4960833;28;20472;-77
2021/03/18 04:24:24;;;;;;;9.83;6.00;;;3.90;99.90;;;;;;4956871;28;21216;-77
2021/03/18 04:26:51;;;;;;;5.50;5.00;;;4.00;99.90;;;;;;4958214;28;20438;-77
2021/03/18 04:29:18;;;;;;;10.40;5.90;;;4.00;99.90;;;;;;4958740;28;20469;-77
2021/03/18 04:31:44;;;;;;;6.90;5.20;;;4.00;99.90;;;;;;4960834;28;20458;-77
2021/03/18 04:34:12;;;;;;;8.37;5.00;;;4.00;99.90;;;;;;4956660;28;20526;-78
2021/03/18 04:36:41;;;;;;;4.87;4.47;;;4.00;99.90;;;;;;4959399;28;21035;-77
2021/03/18 04:39:07;;;;;;;6.77;4.70;;;3.90;99.90;;;;;;4959692;28;21023;-76
2021/03/18 04:41:34;;;;;;;8.33;4.77;;;3.90;99.90;;;;;;4958507;28;20478;-77
2021/03/18 04:44:01;;;;;;;7.73;5.57;;;3.90;99.90;;;;;;4958021;28;20502;-78
2021/03/18 04:46:28;;;;;;;8.57;5.23;;;3.80;99.90;;;;;;4958692;28;20484;-77
2021/03/18 04:48:58;;;;;;;6.00;4.70;;;3.80;99.90;;;;;;4956604;28;20520;-78
2021/03/18 04:51:24;;;;;;;5.90;4.87;;;3.80;99.90;;;;;;4953286;28;20446;-78
2021/03/18 04:53:50;;;;;;;7.93;5.40;;;3.80;99.90;;;;;;4955733;28;20439;-77
2021/03/18 04:56:19;;;;;;;8.70;5.37;;;3.80;99.90;;;;;;4956804;28;20492;-77
2021/03/18 04:58:45;;;;;;;5.43;4.90;;;3.80;99.90;;;;;;4958568;28;20198;-77
2021/03/18 05:01:12;;;;;;;8.00;5.10;;;3.80;99.90;;;;;;4956597;28;20502;-78
2021/03/18 05:03:39;;;;;;;7.67;5.50;;;3.70;99.90;;;;;;4956417;28;20532;-78
2021/03/18 05:06:07;;;;;;;5.40;4.77;;;3.80;99.90;;;;;;4958979;28;20948;-78
2021/03/18 05:08:34;;;;;;;11.07;5.70;;;3.80;99.90;;;;;;4959566;28;20592;-78
2021/03/18 05:11:00;;;;;;;7.03;5.57;;;3.80;99.90;;;;;;4957437;28;20446;-77
2021/03/18 05:13:28;;;;;;;5.63;5.10;;;3.80;99.90;;;;;;4963749;28;20473;-77
2021/03/18 05:15:56;;;;;;;5.60;5.10;;;3.80;99.90;;;;;;4960528;28;20457;-78
2021/03/18 05:18:23;;;;;;;14.10;6.50;;;3.90;99.90;;;;;;4957714;28;20532;-77
2021/03/18 05:20:49;;;;;;;5.87;5.27;;;4.00;99.90;;;;;;4953894;28;20608;-77
2021/03/18 05:23:17;;;;;;;8.53;6.00;;;4.00;99.90;;;;;;4958262;28;20521;-77
2021/03/18 05:25:45;;;;;;;7.10;5.43;;;4.00;99.90;;;;;;4953946;28;20458;-79
2021/03/18 05:28:11;;;;;;;12.53;6.50;;;4.00;99.90;;;;;;4955119;28;20445;-78
2021/03/18 05:30:37;;;;;;;6.67;5.90;;;4.00;99.90;;;;;;4958756;28;20464;-77
2021/03/18 05:33:04;;;;;;;9.20;6.60;;;4.00;99.90;;;;;;4959191;28;21079;-78
2021/03/18 05:35:31;;;;;;;8.70;6.40;;;4.00;99.90;;;;;;4953229;28;20450;-76
2021/03/18 05:37:57;;;;;;;7.70;6.83;;;4.00;99.90;;;;;;4956861;28;20440;-76
2021/03/18 05:40:23;;;;;;;10.80;6.87;;;4.10;99.90;;;;;;4955592;28;20457;-77
2021/03/18 05:42:50;;;;;;;7.50;6.67;;;4.00;99.90;;;;;;4955424;28;20851;-78
2021/03/18 05:45:17;;;;;;;10.33;6.53;;;4.00;99.90;;;;;;4958416;28;20438;-75
2021/03/18 05:47:43;;;;;;;9.70;6.93;;;4.00;99.90;;;;;;4956750;28;20430;-76
2021/03/18 05:50:16;;;;;;;7.43;6.60;;;4.00;99.90;;;;;;4957114;28;21257;-76
2021/03/18 05:52:42;;;;;;;9.17;6.60;;;4.00;99.90;;;;;;4957410;28;20461;-77
2021/03/18 05:55:09;;;;;;;10.33;7.57;;;4.10;99.90;;;;;;4954988;28;20442;-76
2021/03/18 05:57:35;;;;;;;8.63;7.17;;;4.10;99.90;;;;;;4954851;28;20450;-76
2021/03/18 06:00:07;;;;;;;10.43;7.00;;;4.10;99.90;;;;;;4957225;28;20537;-75
2021/03/18 06:02:34;;;;;;;7.90;7.00;;;4.20;99.90;;;;;;4960549;28;20466;-77
2021/03/18 06:05:02;;;;;;;7.60;6.70;;;4.10;99.90;;;;;;4959228;28;20446;-76
2021/03/18 06:07:28;;;;;;;10.27;6.90;;;4.10;99.90;;;;;;4958342;28;20520;-76
2021/03/18 06:09:56;;;;;;;8.63;7.50;;;4.10;99.90;;;;;;4958401;28;20564;-77
2021/03/18 06:12:22;;;;;;;9.40;7.47;;;4.10;99.90;;;;;;4958480;28;20252;-77
2021/03/18 06:14:48;;;;;;;8.67;7.43;;;4.10;99.90;;;;;;4956165;28;20457;-76
2021/03/18 06:17:18;;;;;;;13.77;8.70;;;4.20;99.90;;;;;;4959283;28;20442;-77
2021/03/18 06:19:44;;;;;;;10.10;7.30;;;4.30;99.90;;;;;;4958079;28;20316;-77
2021/03/18 06:22:09;;;;;;;12.60;7.37;;;4.30;99.90;;;;;;4960219;28;20477;-77
2021/03/18 06:24:47;;;;;;;12.80;7.07;;;4.30;99.90;;;;;;4961032;28;20722;-76
2021/03/18 06:27:23;;;;;;;7.70;6.90;;;4.40;99.90;;;;;;4958923;28;20199;-76
2021/03/18 06:29:48;;;;;;;7.13;6.37;;;4.40;99.90;;;;;;4959643;28;20456;-78
2021/03/18 06:32:14;;;;;;;9.00;6.37;;;4.40;99.90;;;;;;4960532;28;20465;-77
2021/03/18 06:34:45;;;;;;;6.83;6.17;;;4.40;99.90;;;;;;4962662;28;20186;-77
2021/03/18 06:37:38;;;;;;;11.87;7.43;;;4.40;99.90;;;;;;4961177;28;20681;-78
2021/03/18 06:40:19;;;;;;;9.87;6.97;;;4.40;99.90;;;;;;4960571;28;20465;-77
2021/03/18 06:42:59;;;;;;;16.83;7.00;;;4.40;99.90;;;;;;4962202;28;20496;-78
2021/03/18 06:45:33;;;;;;;10.17;7.23;;;4.50;99.90;;;;;;4959156;28;20813;-76
2021/03/18 06:48:06;;;;;;;9.13;7.37;;;4.50;99.90;;;;;;4963296;28;20446;-77
2021/03/18 06:50:41;;;;;;;16.70;9.17;;;4.50;99.90;;;;;;4959984;28;20701;-77
2021/03/18 06:53:36;;;;;;;12.20;7.67;;;4.50;99.90;;;;;;4958762;28;20479;-77
2021/03/18 06:56:02;;;;;;;11.07;7.23;;;4.40;99.90;;;;;;4951219;28;20457;-77
2021/03/18 06:58:28;;;;;;;12.07;7.70;;;4.50;99.90;;;;;;4955121;28;20458;-77
2021/03/18 07:01:06;;;;;;;7.90;6.50;;;4.40;99.90;;;;;;4961525;28;20260;-77
2021/03/18 07:03:34;;;;;;;16.40;7.87;;;4.40;99.90;;;;;;4957717;28;20443;-78
2021/03/18 07:06:09;;;;;;;9.20;6.77;;;4.50;99.90;;;;;;4958533;28;20907;-78
2021/03/18 07:08:40;;;;;;;7.80;5.87;;;4.50;99.90;;;;;;4961861;28;20425;-78
2021/03/18 07:11:37;;;;;;;8.77;7.40;;;4.50;99.90;;;;;;4960006;28;20471;-77
2021/03/18 07:14:03;;;;;;;7.47;6.70;;;4.30;99.90;;;;;;4941620;28;20442;-71
2021/03/18 07:16:39;;;;;;;8.30;6.60;;;4.40;99.90;;;;;;4961482;28;20430;-79
2021/03/18 07:19:04;;;;;;;14.50;8.13;;;4.30;99.90;;;;;;4959413;28;20474;-79
2021/03/18 07:21:39;;;;;;;9.23;7.50;;;4.30;99.90;;;;;;4961968;28;20484;-79
2021/03/18 07:24:29;;;;;;;8.00;7.20;;;4.50;99.90;;;;;;4954822;28;20194;-77
2021/03/18 07:27:06;;;;;;;9.20;7.23;;;4.70;99.90;;;;;;4960878;28;20456;-80
2021/03/18 07:29:32;;;;;;;10.17;6.70;;;5.00;99.90;;;;;;4966727;28;20450;-80
2021/03/18 07:31:58;;;;;;;10.93;7.70;;;4.90;99.90;;;;;;4967247;28;20523;-79
2021/03/18 07:34:25;;;;;;;8.53;6.50;;;5.10;99.90;;;;;;4954846;28;20540;-79
2021/03/18 07:36:56;;;;;;;9.30;6.73;;;5.10;99.90;;;;;;4960623;28;20272;-79
2021/03/18 07:39:22;;;;;;;11.20;7.00;;;5.10;99.90;;;;;;4941901;28;20525;-79
2021/03/18 07:41:48;;;;;;;10.07;7.57;;;5.20;99.90;;;;;;4952922;28;20922;-79
2021/03/18 07:44:15;;;;;;;16.43;7.17;;;5.30;99.90;;;;;;4956958;28;20446;-79
2021/03/18 07:46:42;;;;;;;9.77;7.20;;;5.30;99.90;;;;;;4961331;28;20945;-77
2021/03/18 07:49:30;;;;;;;10.37;6.03;;;5.40;99.90;;;;;;4956182;28;20480;-78
2021/03/18 07:51:59;;;;;;;9.80;6.90;;;5.50;99.90;;;;;;4953535;28;21009;-78
2021/03/18 07:54:26;;;;;;;8.43;7.10;;;5.60;99.90;;;;;;4962419;28;20837;-79
2021/03/18 07:56:53;;;;;;;12.53;7.60;;;5.60;99.90;;;;;;4957644;28;20446;-77
2021/03/18 07:59:20;;;;;;;7.50;6.63;;;5.50;99.90;;;;;;4958245;28;20891;-77
2021/03/18 08:01:46;;;;;;;8.77;6.73;;;5.50;99.90;;;;;;4961899;28;20557;-77
2021/03/18 08:04:14;;;;;;;8.27;6.20;;;5.70;99.90;;;;;;4955145;28;20438;-77
2021/03/18 08:06:39;;;;;;;8.20;5.70;;;5.80;99.90;;;;;;4955803;28;20426;-77
2021/03/18 08:09:06;;;;;;;13.20;6.97;;;5.80;99.90;;;;;;4956792;28;20543;-77
2021/03/18 08:11:39;;;;;;;10.83;6.13;;;5.70;99.90;;;;;;4959317;28;20202;-78
2021/03/18 08:14:10;;;;;;;10.67;6.10;;;5.70;99.90;;;;;;4961819;28;20456;-79
2021/03/18 08:16:36;;;;;;;8.30;6.40;;;5.90;99.90;;;;;;4961439;28;20481;-77
2021/03/18 08:19:09;;;;;;;9.30;5.57;;;6.00;99.90;;;;;;4960738;28;20461;-78
2021/03/18 08:21:42;;;;;;;11.30;6.60;;;6.10;99.90;;;;;;4959485;28;20453;-78
2021/03/18 08:24:12;;;;;;;8.17;6.27;;;6.20;99.90;;;;;;4959111;28;20434;-77
2021/03/18 08:26:49;;;;;;;10.80;6.30;;;6.10;99.90;;;;;;4942152;28;20480;-78
2021/03/18 08:29:21;;;;;;;10.60;7.37;;;6.10;99.90;;;;;;4960518;28;20936;-77
2021/03/18 08:31:56;;;;;;;9.60;6.50;;;6.20;99.90;;;;;;4963151;28;20429;-78
2021/03/18 08:34:52;;;;;;;8.23;6.33;;;6.10;99.90;;;;;;4966517;28;20477;-77
2021/03/18 08:37:41;;;;;;;9.23;6.93;;;6.30;99.90;;;;;;4959463;28;20512;-77
2021/03/18 08:40:11;;;;;;;7.30;6.03;;;6.30;99.90;;;;;;4962892;28;20453;-77
2021/03/18 08:42:39;;;;;;;9.50;6.20;;;6.30;99.90;;;;;;4958292;28;20483;-77
2021/03/18 08:45:31;;;;;;;14.63;8.30;;;6.40;99.90;;;;;;4954725;28;20435;-78
2021/03/18 08:48:14;;;;;;;9.40;6.30;;;6.60;99.90;;;;;;4956765;28;20968;-77
2021/03/18 08:50:39;;;;;;;8.23;7.03;;;6.30;99.90;;;;;;4955868;28;21038;-77
2021/03/18 08:53:25;;;;;;;8.37;5.80;;;6.40;99.90;;;;;;4958678;28;20468;-78
2021/03/18 08:55:51;;;;;;;7.80;6.67;;;6.60;99.90;;;;;;4958203;28;20195;-76
2021/03/18 08:58:17;;;;;;;12.43;5.83;;;6.80;99.90;;;;;;4955229;28;21104;-77
2021/03/18 09:00:45;;;;;;;9.73;6.23;;;6.80;99.90;;;;;;4954173;28;22030;-76
2021/03/18 09:03:20;;;;;;;8.80;6.53;;;6.80;99.90;;;;;;4956498;28;20210;-76
2021/03/18 09:05:54;;;;;;;8.90;6.43;;;7.00;99.90;;;;;;4960842;28;20910;-76
2021/03/18 09:08:30;;;;;;;7.27;5.87;;;7.30;99.90;;;;;;4959474;28;20529;-74
2021/03/18 09:10:56;;;;;;;12.07;6.80;;;7.60;99.90;;;;;;4957365;28;20963;-75
2021/03/18 09:13:23;;;;;;;9.60;5.93;;;7.80;99.90;;;;;;4959158;28;20466;-76
2021/03/18 09:15:56;;;;;;;13.67;5.93;;;8.10;99.90;;;;;;4957614;28;20591;-75
2021/03/18 09:18:31;;;;;;;8.60;6.20;;;8.30;99.90;;;;;;4957032;28;20447;-75
2021/03/18 09:21:02;;;;;;;6.17;5.57;;;8.40;99.90;;;;;;4957877;28;20524;-77
2021/03/18 09:23:31;;;;;;;7.73;6.00;;;8.30;99.90;;;;;;4956840;28;20577;-76
2021/03/18 09:26:03;;;;;;;6.97;5.77;;;8.70;99.90;;;;;;4957675;28;20448;-77
2021/03/18 09:28:40;;;;;;;5.30;4.83;;;8.40;99.90;;;;;;4955345;28;20599;-75
2021/03/18 09:31:07;;;;;;;7.70;6.10;;;9.60;99.90;;;;;;4959045;28;20453;-76
2021/03/18 09:33:34;;;;;;;6.53;5.37;;;12.10;99.90;;;;;;4960427;28;20600;-75
2021/03/18 09:36:04;;;;;;;7.47;5.33;;;14.80;97.40;;;;;;4955977;28;20458;-78
2021/03/18 09:38:31;;;;;;;9.20;6.20;;;17.20;81.50;;;;;;4954760;28;20465;-76
2021/03/18 09:40:59;;;;;;;6.80;6.10;;;19.00;60.80;;;;;;4956581;28;20477;-76
2021/03/18 09:43:25;;;;;;;5.77;5.27;;;20.10;54.80;;;;;;4957002;28;20826;-78
2021/03/18 09:46:04;;;;;;;6.97;5.23;;;20.40;50.10;;;;;;4957413;28;20445;-78
2021/03/18 09:48:34;;;;;;;5.27;4.87;;;21.60;48.80;;;;;;4958582;28;20541;-76
2021/03/18 09:51:16;;;;;;;5.80;5.20;;;21.40;43.80;;;;;;4962224;28;20446;-77
2021/03/18 09:53:44;;;;;;;6.50;5.60;;;22.10;43.80;;;;;;4956576;28;21075;-74
2021/03/18 09:56:12;;;;;;;6.03;5.53;;;21.90;41.50;;;;;;4962981;28;21139;-75
2021/03/18 09:58:39;;;;;;;7.17;6.27;;;21.20;40.80;;;;;;4961874;28;20434;-76
2021/03/18 10:01:34;;;;;;;6.93;5.50;;;19.50;42.30;;;;;;4965143;28;20511;-75
2021/03/18 10:04:06;;;;;;;6.43;5.33;;;18.00;43.10;;;;;;4959493;28;20448;-77
2021/03/18 10:06:36;;;;;;;5.17;4.60;;;17.30;44.00;;;;;;4963625;28;20758;-77
2021/03/18 10:09:20;;;;;;;7.50;5.03;;;17.50;44.70;;;;;;4963845;28;20975;-78
2021/03/18 10:11:48;;;;;;;4.77;4.33;;;18.00;42.40;;;;;;4958546;28;20537;-76
2021/03/18 10:14:16;;;;;;;5.60;4.90;;;18.10;44.30;;;;;;4962928;28;20449;-76
2021/03/18 10:16:42;;;;;;;8.90;4.87;;;18.10;43.30;;;;;;4961913;28;20473;-76
2021/03/18 10:19:08;;;;;;;6.40;4.73;;;18.80;44.70;;;;;;4965960;28;20461;-76
2021/03/18 10:21:34;;;;;;;6.70;6.00;;;19.30;44.20;;;;;;4945831;28;20482;-76
2021/03/18 10:24:00;;;;;;;6.70;5.93;;;19.60;44.20;;;;;;4963703;28;20520;-76
2021/03/18 10:26:27;;;;;;;7.37;6.03;;;18.60;43.10;;;;;;4962738;28;20438;-77
2021/03/18 10:29:03;;;;;;;6.37;5.77;;;18.60;44.40;;;;;;4960913;28;20337;-75
2021/03/18 10:31:29;;;;;;;6.20;5.60;;;18.70;44.20;;;;;;4962047;28;20516;-77
2021/03/18 10:33:57;;;;;;;5.90;5.30;;;17.30;44.00;;;;;;4963328;28;20451;-77
2021/03/18 10:36:35;;;;;;;10.77;6.40;;;16.40;45.90;;;;;;4963366;28;20839;-76
2021/03/18 10:39:04;;;;;;;6.90;6.30;;;15.80;46.80;;;;;;4962581;28;20540;-77
2021/03/18 10:41:31;;;;;;;7.67;5.23;;;15.40;47.90;;;;;;4957531;28;20561;-76
2021/03/18 10:43:56;;;;;;;7.03;5.50;;;15.10;49.00;;;;;;4960806;28;20500;-75
2021/03/18 10:46:33;;;;;;;6.07;5.43;;;14.60;49.30;;;;;;4962713;28;20442;-76
2021/03/18 10:48:59;;;;;;;9.00;5.57;;;14.10;49.80;;;;;;4961870;28;20222;-75
2021/03/18 10:51:25;;;;;;;6.43;5.10;;;13.80;50.20;;;;;;4960697;28;20468;-76
2021/03/18 10:53:52;;;;;;;5.43;4.60;;;13.60;50.30;;;;;;4958606;28;20240;-76
2021/03/18 10:56:25;;;;;;;6.00;5.03;;;13.50;51.10;;;;;;4962329;28;20805;-77
2021/03/18 10:58:51;;;;;;;6.77;5.10;;;13.10;50.50;;;;;;4960584;28;20461;-75
2021/03/18 11:01:29;;;;;;;6.80;5.37;;;12.80;51.40;;;;;;4958008;28;21021;-75
2021/03/18 11:04:02;;;;;;;5.90;5.30;;;12.20;51.80;;;;;;4963749;28;20433;-75
2021/03/18 11:06:28;;;;;;;8.00;4.80;;;11.80;52.60;;;;;;4959271;28;20427;-76
2021/03/18 11:08:56;;;;;;;5.57;4.40;;;11.60;52.00;;;;;;4963484;28;20627;-74
2021/03/18 11:11:26;;;;;;;5.33;4.83;;;11.40;52.50;;;;;;4958346;28;20406;-75
2021/03/18 11:14:04;;;;;;;5.17;4.70;;;11.20;52.40;;;;;;4961724;28;20489;-76
2021/03/18 11:16:29;;;;;;;5.40;4.73;;;11.20;53.30;;;;;;4962827;28;20453;-75
2021/03/18 11:18:58;;;;;;;7.93;5.03;;;11.00;54.40;;;;;;4961177;28;20995;-76
2021/03/18 11:21:38;;;;;;;5.43;4.53;;;11.00;55.30;;;;;;4957597;28;20227;-76
2021/03/18 11:24:10;;;;;;;11.50;4.47;;;11.00;53.80;;;;;;4960115;28;20521;-76
2021/03/18 11:26:39;;;;;;;4.97;4.47;;;10.90;53.10;;;;;;4960772;28;20454;-77
2021/03/18 11:29:15;;;;;;;5.43;4.90;;;10.80;53.60;;;;;;4961535;28;20480;-77
2021/03/18 11:31:45;;;;;;;7.57;4.80;;;10.70;54.10;;;;;;4957066;28;20438;-77
2021/03/18 11:34:17;;;;;;;4.70;4.30;;;10.90;54.10;;;;;;4962154;28;20545;-76
2021/03/18 11:36:45;;;;;;;6.60;4.43;;;11.10;53.70;;;;;;4958700;28;20544;-76
2021/03/18 11:39:11;;;;;;;10.83;4.80;;;11.40;54.40;;;;;;4961373;28;21145;-77
2021/03/18 11:41:36;;;;;;;6.73;4.93;;;12.60;54.00;;;;;;4958454;28;20477;-76
2021/03/18 11:44:02;;;;;;;4.57;4.17;;;14.40;51.70;;;;;;4960164;28;20450;-76
2021/03/18 11:46:28;;;;;;;4.87;4.40;;;16.50;49.30;;;;;;4964336;28;20536;-75
2021/03/18 11:48:54;;;;;;;7.20;5.20;;;17.80;47.00;;;;;;4961301;28;20437;-76
2021/03/18 11:51:21;;;;;;;4.60;4.17;;;17.80;45.30;;;;;;4961104;28;20253;-76
2021/03/18 11:53:47;;;;;;;7.00;5.27;;;16.90;43.90;;;;;;4958078;28;20445;-76
2021/03/18 11:56:13;;;;;;;4.30;3.90;;;16.80;45.80;;;;;;4960778;28;20475;-76
2021/03/18 11:58:39;;;;;;;4.70;4.30;;;16.70;46.00;;;;;;4961100;28;20430;-76
2021/03/18 12:01:05;;;;;;;5.07;4.67;;;15.80;45.20;;;;;;4963185;28;20214;-75
2021/03/18 12:03:31;;;;;;;4.63;4.23;;;14.80;45.60;;;;;;4955602;28;20453;-75
2021/03/18 12:05:56;;;;;;;5.27;4.20;;;13.80;46.80;;;;;;4959129;28;20190;-77
2021/03/18 12:08:22;;;;;;;4.20;3.80;;;13.50;47.70;;;;;;4957558;28;20285;-75
2021/03/18 12:10:48;;;;;;;4.80;4.40;;;13.10;48.10;;;;;;4961141;28;20693;-75
2021/03/18 12:13:13;;;;;;;5.37;4.97;;;12.70;49.10;;;;;;4957782;28;20183;-75
2021/03/18 12:15:39;;;;;;;4.30;3.90;;;12.20;49.00;;;;;;4962889;28;20818;-78
2021/03/18 12:18:05;;;;;;;4.60;3.90;;;12.00;50.00;;;;;;4956352;28;20195;-77
2021/03/18 12:20:30;;;;;;;6.50;4.40;;;11.90;50.40;;;;;;4956389;28;20214;-76
2021/03/18 12:22:57;;;;;;;5.70;3.50;;;11.80;50.00;;;;;;4960706;28;20252;-76
2021/03/18 12:25:24;;;;;;;4.70;4.30;;;11.80;50.50;;;;;;4957911;28;20253;-76
2021/03/18 12:27:51;;;;;;;5.23;4.73;;;11.80;50.40;;;;;;4960824;28;20534;-76
2021/03/18 12:30:19;;;;;;;7.10;4.03;;;11.80;50.60;;;;;;4960750;28;20466;-75
2021/03/18 12:32:46;;;;;;;5.93;3.97;;;11.80;50.10;;;;;;4958304;28;20986;-76
2021/03/18 12:35:13;;;;;;;7.10;3.70;;;12.10;50.40;;;;;;4960173;28;20434;-76
2021/03/18 12:37:39;;;;;;;5.53;4.00;;;13.90;49.50;;;;;;4958299;28;20447;-75
2021/03/18 12:40:07;;;;;;;5.63;4.00;;;16.30;47.30;;;;;;4958781;28;20465;-74
2021/03/18 12:42:33;;;;;;;4.37;3.90;;;19.30;42.90;;;;;;4952735;28;20262;-75
2021/03/18 12:44:59;;;;;;;3.90;3.50;;;20.80;40.10;;;;;;4958406;28;20448;-75
2021/03/18 12:47:26;;;;;;;4.20;3.73;;;22.40;37.80;;;;;;4961185;28;20532;-75
2021/03/18 12:49:52;;;;;;;5.13;3.77;;;22.10;36.00;;;;;;4957552;28;20702;-76
2021/03/18 12:52:18;;;;;;;52.03;37.37;;;21.50;36.60;;;;;;4958673;28;20540;-76
2021/03/18 12:54:43;;;;;;;4.97;4.47;;;20.40;37.00;;;;;;4957512;28;20437;-76
2021/03/18 12:57:09;;;;;;;5.13;3.47;;;20.20;36.60;;;;;;4958253;28;20234;-76
2021/03/18 12:59:35;;;;;;;4.03;3.63;;;19.50;37.10;;;;;;4959877;28;20213;-77
2021/03/18 13:02:01;;;;;;;3.73;3.50;;;18.70;37.00;;;;;;4959051;28;20932;-76
2021/03/18 13:04:27;;;;;;;5.17;4.27;;;17.90;37.30;;;;;;4959261;28;20452;-77